createdAt,value
2022-11-20T00:01:41.885Z,99922.28
2022-11-20T00:04:12.946Z,99920.59
2022-11-20T00:06:41.406Z,99921.38
2022-11-20T00:09:12.491Z,99917.03
2022-11-20T00:11:42.005Z,99917.81
2022-11-20T00:14:12.320Z,99912.66
2022-11-20T00:16:42.689Z,99923.72
2022-11-20T00:19:12.024Z,99908.44
2022-11-20T00:21:43.692Z,99910.06
2022-11-20T00:24:14.152Z,99908.38
2022-11-20T00:26:42.597Z,99908.31
2022-11-20T00:29:12.042Z,99915.19
2022-11-20T00:31:42.754Z,99910.94
2022-11-20T00:34:12.105Z,99916.09
2022-11-20T00:36:41.016Z,99905.88
2022-11-20T00:39:10.187Z,99898.16
2022-11-20T00:41:39.123Z,99907.66
2022-11-20T00:44:07.730Z,99909.44
2022-11-20T00:46:36.238Z,99901.88
2022-11-20T00:49:06.274Z,99905.25
2022-11-20T00:51:34.964Z,99902.69
2022-11-20T00:54:03.810Z,99901.81
2022-11-20T00:56:32.779Z,99902.66
2022-11-20T00:59:02.518Z,99899.28
2022-11-20T01:01:31.787Z,99897.53
2022-11-20T01:04:02.323Z,99899.22
2022-11-20T01:06:37.293Z,99905.94
2022-11-20T01:09:08.530Z,99902.50
2022-11-20T01:11:38.918Z,99892.31
2022-11-20T01:14:11.349Z,99900.00
2022-11-20T01:16:41.619Z,99900.06
2022-11-20T01:19:17.547Z,99900.91
2022-11-20T01:21:50.796Z,99899.22
2022-11-20T01:24:21.536Z,99889.09
2022-11-20T01:26:52.620Z,99897.50
2022-11-20T01:29:24.954Z,99894.91
2022-11-20T01:31:54.336Z,99886.31
2022-11-20T01:34:24.460Z,99887.06
2022-11-20T01:36:55.277Z,99885.31
2022-11-20T01:39:25.776Z,99889.41
2022-11-20T01:42:15.613Z,99884.28
2022-11-20T01:44:56.415Z,99882.59
2022-11-20T01:47:32.759Z,99879.22
2022-11-20T01:50:07.504Z,99875.09
2022-11-20T01:52:42.395Z,99867.38
2022-11-20T01:55:15.193Z,99858.00
2022-11-20T01:58:24.963Z,99866.44
2022-11-20T02:00:53.851Z,99859.66
2022-11-20T02:03:23.304Z,99853.66
2022-11-20T02:05:56.576Z,99857.84
2022-11-20T02:08:26.737Z,99849.22
2022-11-20T02:10:55.280Z,99853.38
2022-11-20T02:13:41.455Z,99852.44
2022-11-20T02:16:13.835Z,99848.97
2022-11-20T02:18:43.679Z,99859.16
2022-11-20T02:21:21.469Z,99851.47
2022-11-20T02:24:13.681Z,99862.50
2022-11-20T02:26:52.197Z,99861.66
2022-11-20T02:29:25.766Z,99861.78
2022-11-20T02:31:57.503Z,99862.66
2022-11-20T02:34:26.076Z,99860.19
2022-11-20T02:36:55.258Z,99855.94
2022-11-20T02:39:27.605Z,99863.59
2022-11-20T02:41:57.939Z,99862.63
2022-11-20T02:44:26.364Z,99871.97
2022-11-20T02:46:55.114Z,99863.50
2022-11-20T02:49:23.948Z,99870.38
2022-11-20T02:51:52.714Z,99873.03
2022-11-20T02:54:21.091Z,99870.59
2022-11-20T02:56:50.867Z,99867.13
2022-11-20T02:59:19.315Z,99864.53
2022-11-20T03:01:48.559Z,99862.00
2022-11-20T03:04:17.585Z,99860.25
2022-11-20T03:06:45.939Z,99866.94
2022-11-20T03:09:15.168Z,99867.69
2022-11-20T03:11:43.807Z,99863.44
2022-11-20T03:14:14.266Z,99862.50
2022-11-20T03:16:43.179Z,99857.28
2022-11-20T03:19:12.049Z,99854.69
2022-11-20T03:21:40.597Z,99852.94
2022-11-20T03:24:10.179Z,99853.78
2022-11-20T03:26:41.757Z,99858.09
2022-11-20T03:29:10.641Z,99854.75
2022-11-20T03:31:42.706Z,99865.00
2022-11-20T03:34:12.905Z,99861.63
2022-11-20T03:36:42.620Z,99858.19
2022-11-20T03:39:12.145Z,99853.03
2022-11-20T03:41:43.278Z,99856.41
2022-11-20T03:44:14.179Z,99856.34
2022-11-20T03:46:43.941Z,99854.63
2022-11-20T03:49:12.596Z,99856.28
2022-11-20T03:51:41.101Z,99851.13
2022-11-20T03:54:10.969Z,99845.16
2022-11-20T03:56:40.765Z,99838.38
2022-11-20T03:59:12.416Z,99839.28
2022-11-20T04:01:43.170Z,99839.25
2022-11-20T04:04:17.095Z,99844.31
2022-11-20T04:06:45.524Z,99851.91
2022-11-20T04:09:13.794Z,99847.59
2022-11-20T04:11:43.351Z,99841.63
2022-11-20T04:14:16.414Z,99834.84
2022-11-20T04:16:45.515Z,99834.00
2022-11-20T04:19:18.317Z,99828.03
2022-11-20T04:21:48.152Z,99828.06
2022-11-20T04:24:16.801Z,99825.44
2022-11-20T04:26:45.086Z,99830.53
2022-11-20T04:29:14.213Z,99827.16
2022-11-20T04:31:43.623Z,99821.28
2022-11-20T04:34:13.905Z,99817.06
2022-11-20T04:36:43.977Z,99823.03
2022-11-20T04:39:16.922Z,99817.94
2022-11-20T04:41:45.213Z,99809.47
2022-11-20T04:44:13.946Z,99806.88
2022-11-20T04:46:44.425Z,99805.16
2022-11-20T04:49:13.891Z,99803.44
2022-11-20T04:51:44.594Z,99794.91
2022-11-20T04:54:13.636Z,99795.81
2022-11-20T04:56:42.677Z,99795.03
2022-11-20T04:59:10.909Z,99797.66
2022-11-20T05:01:39.682Z,99791.72
2022-11-20T05:04:08.434Z,99797.66
2022-11-20T05:06:37.012Z,99785.72
2022-11-20T05:09:07.470Z,99793.41
2022-11-20T05:11:36.531Z,99779.78
2022-11-20T05:14:04.991Z,99779.81
2022-11-20T05:16:33.379Z,99774.66
2022-11-20T05:19:01.826Z,99784.78
2022-11-20T05:21:32.578Z,99780.47
2022-11-20T05:24:02.601Z,99782.97
2022-11-20T05:26:32.476Z,99790.53
2022-11-20T05:29:01.015Z,99787.97
2022-11-20T05:31:29.972Z,99786.34
2022-11-20T05:33:59.143Z,99778.69
2022-11-20T05:36:27.691Z,99781.19
2022-11-20T05:39:01.266Z,99779.38
2022-11-20T05:41:30.769Z,99779.22
2022-11-20T05:44:00.746Z,99781.53
2022-11-20T05:46:30.731Z,99778.81
2022-11-20T05:48:59.872Z,99783.00
2022-11-20T05:51:29.881Z,99778.69
2022-11-20T05:53:59.754Z,99781.97
2022-11-20T05:56:28.470Z,99781.00
2022-11-20T05:58:56.735Z,99785.06
2022-11-20T06:01:28.406Z,99790.88
2022-11-20T06:03:56.972Z,99785.72
2022-11-20T06:06:26.379Z,99787.34
2022-11-20T06:08:56.728Z,99792.47
2022-11-20T06:11:24.998Z,99786.66
2022-11-20T06:13:53.551Z,99786.72
2022-11-20T06:16:22.927Z,99786.69
2022-11-20T06:18:52.770Z,99794.31
2022-11-20T06:21:22.961Z,99790.16
2022-11-20T06:23:52.359Z,99778.41
2022-11-20T06:26:23.683Z,99772.50
2022-11-20T06:28:52.901Z,99771.78
2022-11-20T06:31:23.833Z,99770.13
2022-11-20T06:33:54.691Z,99774.47
2022-11-20T06:36:24.668Z,99761.75
2022-11-20T06:38:53.448Z,99772.00
2022-11-20T06:41:23.891Z,99772.88
2022-11-20T06:43:52.710Z,99770.38
2022-11-20T06:46:22.170Z,99772.94
2022-11-20T06:48:54.129Z,99777.22
2022-11-20T06:51:22.925Z,99779.84
2022-11-20T06:53:51.439Z,99770.63
2022-11-20T06:56:20.134Z,99766.47
2022-11-20T06:58:48.799Z,99777.63
2022-11-20T07:01:17.885Z,99774.34
2022-11-20T07:03:49.983Z,99778.78
2022-11-20T07:06:21.523Z,99764.63
2022-11-20T07:08:52.285Z,99764.81
2022-11-20T07:11:22.146Z,99766.66
2022-11-20T07:13:50.692Z,99764.19
2022-11-20T07:16:19.204Z,99760.91
2022-11-20T07:18:50.849Z,99766.06
2022-11-20T07:21:22.184Z,99769.56
2022-11-20T07:23:50.763Z,99767.97
2022-11-20T07:26:19.154Z,99764.78
2022-11-20T07:28:47.777Z,99757.28
2022-11-20T07:31:19.434Z,99757.63
2022-11-20T07:33:48.902Z,99763.03
2022-11-20T07:36:17.202Z,99761.53
2022-11-20T07:38:47.478Z,99764.31
2022-11-20T07:41:17.127Z,99759.44
2022-11-20T07:43:45.563Z,99748.56
2022-11-20T07:46:14.155Z,99742.69
2022-11-20T07:48:42.638Z,99745.25
2022-11-20T07:51:11.260Z,99739.34
2022-11-20T07:53:40.003Z,99747.94
2022-11-20T07:56:10.611Z,99748.91
2022-11-20T07:58:39.916Z,99753.28
2022-11-20T08:01:09.816Z,99750.75
2022-11-20T08:03:39.664Z,99751.66
2022-11-20T08:06:09.895Z,99752.56
2022-11-20T08:08:42.998Z,99751.03
2022-11-20T08:11:30.702Z,99761.41
2022-11-20T08:14:14.743Z,99764.06
2022-11-20T08:16:45.129Z,99755.69
2022-11-20T08:19:13.769Z,99754.91
2022-11-20T08:21:42.621Z,99753.38
2022-11-20T08:24:11.959Z,99747.50
2022-11-20T08:26:43.165Z,99743.41
2022-11-20T08:29:11.646Z,99742.63
2022-11-20T08:31:40.766Z,99736.75
2022-11-20T08:34:12.059Z,99735.19
2022-11-20T08:36:43.590Z,99737.81
2022-11-20T08:39:14.721Z,99733.63
2022-11-20T08:41:45.823Z,99731.13
2022-11-20T08:44:14.489Z,99725.22
2022-11-20T08:46:44.816Z,99719.34
2022-11-20T08:49:14.904Z,99715.09
2022-11-20T08:51:43.849Z,99713.50
2022-11-20T08:54:16.403Z,99713.53
2022-11-20T08:56:47.403Z,99716.97
2022-11-20T08:59:44.151Z,99714.47
2022-11-20T09:02:06.758Z,99715.34
2022-11-20T09:04:35.306Z,99722.25
2022-11-20T09:07:04.778Z,99722.28
2022-11-20T09:09:33.810Z,99719.78
2022-11-20T09:12:04.384Z,99710.41
2022-11-20T09:14:36.410Z,99710.41
2022-11-20T09:17:06.548Z,99703.63
2022-11-20T09:19:38.294Z,99708.78
2022-11-20T09:22:09.918Z,99704.53
2022-11-20T09:24:38.618Z,99696.84
2022-11-20T09:27:09.675Z,99691.69
2022-11-20T09:29:38.672Z,99697.69
2022-11-20T09:32:08.321Z,99690.88
2022-11-20T09:34:37.121Z,99688.28
2022-11-20T09:37:07.894Z,99683.16
2022-11-20T09:39:40.007Z,99680.56
2022-11-20T09:42:33.796Z,99684.84
2022-11-20T09:45:23.095Z,99672.88
2022-11-20T09:48:17.607Z,99672.03
2022-11-20T09:50:51.832Z,99667.69
2022-11-20T09:53:33.483Z,99658.84
2022-11-20T09:56:04.721Z,99664.84
2022-11-20T09:58:37.907Z,99667.50
2022-11-20T10:01:29.545Z,99665.84
2022-11-20T10:04:03.431Z,99654.69
2022-11-20T10:06:39.530Z,99658.13
2022-11-20T10:09:24.303Z,99673.56
2022-11-20T10:12:05.746Z,99667.56
2022-11-20T10:14:52.748Z,99668.38
2022-11-20T10:17:31.625Z,99668.38
2022-11-20T10:20:18.827Z,99664.06
2022-11-20T10:22:58.667Z,99652.03
2022-11-20T10:25:36.542Z,99646.03
2022-11-20T10:28:18.243Z,99641.75
2022-11-20T10:30:55.646Z,99645.97
2022-11-20T10:33:50.030Z,99638.25
2022-11-20T10:36:26.282Z,99633.94
2022-11-20T10:39:01.686Z,99634.81
2022-11-20T10:41:37.199Z,99629.59
2022-11-20T10:44:12.290Z,99632.19
2022-11-20T10:46:46.305Z,99620.97
2022-11-20T10:49:23.507Z,99629.50
2022-11-20T10:52:03.255Z,99625.19
2022-11-20T10:54:39.187Z,99620.91
2022-11-20T10:57:18.014Z,99619.13
2022-11-20T11:00:03.714Z,99614.81
2022-11-20T11:02:41.470Z,99617.38
2022-11-20T11:05:20.664Z,99619.06
2022-11-20T11:07:53.160Z,99607.91
2022-11-20T11:10:28.208Z,99601.03
2022-11-20T11:12:57.535Z,99604.41
2022-11-20T11:15:31.355Z,99605.25
2022-11-20T11:18:01.280Z,99600.97
2022-11-20T11:20:32.877Z,99600.97
2022-11-20T11:23:02.112Z,99599.22
2022-11-20T11:25:34.904Z,99601.72
2022-11-20T11:28:04.468Z,99598.22
2022-11-20T11:30:45.200Z,99593.00
2022-11-20T11:33:22.761Z,99592.94
2022-11-20T11:35:54.782Z,99590.41
2022-11-20T11:38:31.104Z,99587.84
2022-11-20T11:41:00.630Z,99590.41
2022-11-20T11:43:51.168Z,99591.25
2022-11-20T11:46:35.370Z,99589.56
2022-11-20T11:49:19.234Z,99589.56
2022-11-20T11:52:04.756Z,99583.53
2022-11-20T11:54:39.609Z,99582.66
2022-11-20T11:57:16.476Z,99575.78
2022-11-20T11:59:58.423Z,99582.63
2022-11-20T12:02:37.030Z,99577.47
2022-11-20T12:05:20.032Z,99585.19
2022-11-20T12:07:52.702Z,99575.72
2022-11-20T12:10:28.270Z,99580.84
2022-11-20T12:13:04.808Z,99579.13
2022-11-20T12:15:41.072Z,99565.41
2022-11-20T12:18:20.596Z,99569.75
2022-11-20T12:21:18.971Z,99569.72
2022-11-20T12:24:12.958Z,99554.28
2022-11-20T12:27:03.799Z,99555.19
2022-11-20T12:29:45.519Z,99556.94
2022-11-20T12:32:41.195Z,99551.78
2022-11-20T12:35:29.559Z,99537.13
2022-11-20T12:38:16.902Z,99544.84
2022-11-20T12:40:52.683Z,99549.19
2022-11-20T12:43:41.989Z,99544.06
2022-11-20T12:46:28.126Z,99546.69
2022-11-20T12:49:26.268Z,99550.19
2022-11-20T12:52:08.683Z,99547.63
2022-11-20T12:54:51.980Z,99543.41
2022-11-20T12:57:26.945Z,99539.16
2022-11-20T13:00:05.683Z,99528.06
2022-11-20T13:02:47.264Z,99525.50
2022-11-20T13:05:24.347Z,99525.56
2022-11-20T13:07:55.779Z,99523.88
2022-11-20T13:10:34.109Z,99529.91
2022-11-20T13:13:11.328Z,99523.06
2022-11-20T13:15:50.363Z,99517.94
2022-11-20T13:18:20.074Z,99524.84
2022-11-20T13:20:52.622Z,99520.59
2022-11-20T13:23:28.694Z,99523.16
2022-11-20T13:26:18.195Z,99521.47
2022-11-20T13:28:48.662Z,99531.78
2022-11-20T13:31:33.120Z,99535.22
2022-11-20T13:34:04.229Z,99530.94
2022-11-20T13:36:33.779Z,99524.91
2022-11-20T13:39:02.749Z,99526.63
2022-11-20T13:41:36.864Z,99530.88
2022-11-20T13:44:15.900Z,99535.13
2022-11-20T13:46:47.352Z,99542.03
2022-11-20T13:49:25.288Z,99540.34
2022-11-20T13:52:05.114Z,99534.34
2022-11-20T13:54:57.792Z,99531.81
2022-11-20T13:57:55.207Z,99531.00
2022-11-20T14:00:25.485Z,99529.34
2022-11-20T14:03:13.441Z,99530.25
2022-11-20T14:05:52.340Z,99522.56
2022-11-20T14:08:29.509Z,99516.59
2022-11-20T14:11:06.718Z,99514.91
2022-11-20T14:13:36.982Z,99510.69
2022-11-20T14:16:05.916Z,99506.44
2022-11-20T14:18:34.683Z,99506.47
2022-11-20T14:21:04.988Z,99501.38
2022-11-20T14:23:33.939Z,99506.53
2022-11-20T14:26:05.471Z,99495.44
2022-11-20T14:28:34.070Z,99499.75
2022-11-20T14:31:04.228Z,99504.06
2022-11-20T14:33:35.875Z,99499.78
2022-11-20T14:36:05.274Z,99500.72
2022-11-20T14:38:35.000Z,99505.88
2022-11-20T14:41:11.116Z,99506.75
2022-11-20T14:43:40.722Z,99502.44
2022-11-20T14:46:13.233Z,99502.47
2022-11-20T14:48:45.724Z,99508.47
2022-11-20T14:51:25.171Z,99501.66
2022-11-20T14:53:53.670Z,99498.22
2022-11-20T14:56:29.718Z,99496.53
2022-11-20T14:58:58.868Z,99494.84
2022-11-20T15:01:34.819Z,99498.28
2022-11-20T15:04:07.770Z,99494.03
2022-11-20T15:06:36.659Z,99490.66
2022-11-20T15:09:07.530Z,99485.56
2022-11-20T15:11:38.000Z,99471.91
2022-11-20T15:14:09.072Z,99470.19
2022-11-20T15:16:39.531Z,99465.91
2022-11-20T15:19:19.720Z,99477.06
2022-11-20T15:21:48.853Z,99462.53
2022-11-20T15:24:17.833Z,99468.53
2022-11-20T15:26:47.039Z,99461.69
2022-11-20T15:29:19.825Z,99455.69
2022-11-20T15:31:49.613Z,99458.28
2022-11-20T15:34:18.326Z,99457.41
2022-11-20T15:36:47.015Z,99453.97
2022-11-20T15:39:16.756Z,99456.56
2022-11-20T15:41:45.212Z,99458.25
2022-11-20T15:44:14.090Z,99462.50
2022-11-20T15:46:46.272Z,99461.66
2022-11-20T15:49:19.785Z,99462.50
2022-11-20T15:51:51.179Z,99455.66
2022-11-20T15:54:22.733Z,99459.09
2022-11-20T15:56:54.354Z,99455.69
2022-11-20T15:59:23.077Z,99450.53
2022-11-20T16:01:52.053Z,99453.06
2022-11-20T16:04:22.470Z,99447.94
2022-11-20T16:06:52.232Z,99453.91
2022-11-20T16:09:21.681Z,99460.72
2022-11-20T16:11:50.849Z,99461.53
2022-11-20T16:14:36.496Z,99464.09
2022-11-20T16:17:05.659Z,99464.06
2022-11-20T16:19:36.033Z,99448.72
2022-11-20T16:22:05.882Z,99455.53
2022-11-20T16:24:34.889Z,99441.03
2022-11-20T16:27:04.339Z,99443.56
2022-11-20T16:29:33.246Z,99453.84
2022-11-20T16:32:02.231Z,99447.84
2022-11-20T16:34:31.122Z,99447.78
2022-11-20T16:37:01.188Z,99446.09
2022-11-20T16:39:30.252Z,99446.97
2022-11-20T16:41:58.953Z,99455.47
2022-11-20T16:44:27.652Z,99444.41
2022-11-20T16:46:57.542Z,99434.19
2022-11-20T16:49:26.477Z,99433.34
2022-11-20T16:51:55.686Z,99437.63
2022-11-20T16:54:25.899Z,99426.56
2022-11-20T16:56:55.587Z,99427.44
2022-11-20T16:59:24.276Z,99426.59
2022-11-20T17:01:53.179Z,99416.38
2022-11-20T17:04:24.077Z,99417.25
2022-11-20T17:06:53.419Z,99405.31
2022-11-20T17:09:22.205Z,99414.66
2022-11-20T17:11:52.852Z,99407.84
2022-11-20T17:14:22.487Z,99404.44
2022-11-20T17:16:51.554Z,99402.72
2022-11-20T17:19:20.598Z,99407.00
2022-11-20T17:21:50.000Z,99401.00
2022-11-20T17:24:18.719Z,99407.81
2022-11-20T17:26:51.768Z,99406.97
2022-11-20T17:29:24.438Z,99411.22
2022-11-20T17:31:55.517Z,99411.19
2022-11-20T17:34:25.055Z,99410.31
2022-11-20T17:36:55.191Z,99415.41
2022-11-20T17:39:23.796Z,99417.09
2022-11-20T17:42:07.441Z,99411.94
2022-11-20T17:44:35.979Z,99411.94
2022-11-20T17:47:04.661Z,99407.66
2022-11-20T17:49:33.301Z,99400.00
2022-11-20T17:52:06.768Z,99390.66
2022-11-20T17:54:35.271Z,99388.09
2022-11-20T17:57:34.786Z,99382.16
2022-11-20T18:00:03.762Z,99369.38
2022-11-20T18:02:34.032Z,99374.50
2022-11-20T18:05:06.015Z,99377.09
2022-11-20T18:07:38.641Z,99375.38
2022-11-20T18:10:11.820Z,99379.66
2022-11-20T18:12:44.342Z,99372.81
2022-11-20T18:15:12.949Z,99364.28
2022-11-20T18:17:41.705Z,99363.44
2022-11-20T18:20:28.367Z,99357.47
2022-11-20T18:22:57.797Z,99351.47
2022-11-20T18:25:26.281Z,99348.91
2022-11-20T18:27:56.704Z,99348.91
2022-11-20T18:30:26.030Z,99340.38
2022-11-20T18:32:54.401Z,99334.34
2022-11-20T18:35:28.649Z,99334.34
2022-11-20T18:37:57.384Z,99337.69
2022-11-20T18:40:26.279Z,99330.88
2022-11-20T18:43:22.183Z,99329.16
2022-11-20T18:45:52.952Z,99331.69
2022-11-20T18:48:21.643Z,99323.13
2022-11-20T18:50:52.108Z,99323.91
2022-11-20T18:53:20.826Z,99321.31
2022-11-20T18:55:49.887Z,99324.69
2022-11-20T18:58:19.803Z,99315.25
2022-11-20T19:00:48.347Z,99316.13
2022-11-20T19:03:19.130Z,99315.25
2022-11-20T19:05:49.706Z,99304.97
2022-11-20T19:08:18.299Z,99304.09
2022-11-20T19:10:47.281Z,99301.50
2022-11-20T19:13:15.907Z,99312.63
2022-11-20T19:15:45.870Z,99313.47
2022-11-20T19:18:14.318Z,99316.91
2022-11-20T19:20:43.248Z,99314.38
2022-11-20T19:23:11.818Z,99322.06
2022-11-20T19:25:40.509Z,99312.69
2022-11-20T19:28:09.001Z,99308.38
2022-11-20T19:30:37.748Z,99310.97
2022-11-20T19:33:07.911Z,99304.16
2022-11-20T19:35:37.145Z,99305.03
2022-11-20T19:38:06.369Z,99307.66
2022-11-20T19:40:35.790Z,99309.38
2022-11-20T19:43:05.569Z,99309.44
2022-11-20T19:45:34.879Z,99306.91
2022-11-20T19:48:07.941Z,99303.50
2022-11-20T19:50:38.678Z,99305.22
2022-11-20T19:53:07.681Z,99312.09
2022-11-20T19:55:36.425Z,99316.38
2022-11-20T19:58:05.110Z,99312.13
2022-11-20T20:00:36.236Z,99311.28
2022-11-20T20:03:04.561Z,99307.88
2022-11-20T20:05:35.617Z,99312.16
2022-11-20T20:08:05.684Z,99313.88
2022-11-20T20:10:34.560Z,99310.47
2022-11-20T20:13:03.175Z,99322.44
2022-11-20T20:15:32.011Z,99323.28
2022-11-20T20:18:00.893Z,99322.44
2022-11-20T20:20:31.659Z,99316.47
2022-11-20T20:23:00.329Z,99314.75
2022-11-20T20:25:30.352Z,99314.75
2022-11-20T20:27:58.809Z,99315.63
2022-11-20T20:30:27.380Z,99314.78
2022-11-20T20:32:56.500Z,99319.91
2022-11-20T20:35:27.502Z,99309.63
2022-11-20T20:37:56.010Z,99311.38
2022-11-20T20:40:24.735Z,99304.53
2022-11-20T20:42:54.657Z,99307.06
2022-11-20T20:45:23.766Z,99306.22
2022-11-20T20:47:52.739Z,99304.50
2022-11-20T20:50:21.476Z,99299.38
2022-11-20T20:52:50.513Z,99309.63
2022-11-20T20:55:19.084Z,99306.22
2022-11-20T20:57:47.502Z,99310.47
2022-11-20T21:00:19.151Z,99307.91
2022-11-20T21:02:47.583Z,99312.19
2022-11-20T21:05:16.091Z,99301.03
2022-11-20T21:07:58.468Z,99300.19
2022-11-20T21:10:27.007Z,99307.84
2022-11-20T21:12:55.482Z,99309.56
2022-11-20T21:15:25.200Z,99306.09
2022-11-20T21:17:53.885Z,99296.66
2022-11-20T21:20:43.083Z,99306.94
2022-11-20T21:23:12.357Z,99306.03
2022-11-20T21:25:41.666Z,99309.44
2022-11-20T21:28:15.492Z,99304.28
2022-11-20T21:30:48.408Z,99310.25
2022-11-20T21:33:16.845Z,99301.69
2022-11-20T21:35:45.803Z,99298.22
2022-11-20T21:38:14.270Z,99294.78
2022-11-20T21:40:44.070Z,99298.19
2022-11-20T21:43:12.605Z,99291.31
2022-11-20T21:45:41.222Z,99296.41
2022-11-20T21:48:11.998Z,99294.72
2022-11-20T21:50:40.627Z,99293.84
2022-11-20T21:53:09.294Z,99284.41
2022-11-20T21:55:38.177Z,99284.38
2022-11-20T21:58:07.110Z,99287.78
2022-11-20T22:00:35.672Z,99292.00
2022-11-20T22:03:04.601Z,99298.81
2022-11-20T22:05:34.880Z,99298.00
2022-11-20T22:08:03.722Z,99303.94
2022-11-20T22:10:32.644Z,99304.75
2022-11-20T22:13:14.848Z,99310.72
2022-11-20T22:15:59.965Z,99312.41
2022-11-20T22:18:29.246Z,99311.50
2022-11-20T22:21:04.887Z,99320.06
2022-11-20T22:23:33.462Z,99314.03
2022-11-20T22:26:04.783Z,99309.75
2022-11-20T22:28:33.622Z,99311.41
2022-11-20T22:31:02.643Z,99306.25
2022-11-20T22:33:32.254Z,99305.34
2022-11-20T22:36:07.602Z,99306.19
2022-11-20T22:38:39.470Z,99300.16
2022-11-20T22:41:09.980Z,99300.16
2022-11-20T22:43:39.529Z,99306.09
2022-11-20T22:46:09.850Z,99301.78
2022-11-20T22:48:39.734Z,99296.63
2022-11-20T22:51:10.968Z,99300.03
2022-11-20T22:53:40.075Z,99300.88
2022-11-20T22:56:11.020Z,99289.72
2022-11-20T22:58:40.206Z,99297.38
2022-11-20T23:01:12.403Z,99301.63
2022-11-20T23:03:43.229Z,99294.78
2022-11-20T23:06:13.624Z,99292.19
2022-11-20T23:08:43.384Z,99292.13
2022-11-20T23:11:14.543Z,99293.00
2022-11-20T23:13:43.753Z,99304.16
2022-11-20T23:16:14.870Z,99298.13
2022-11-20T23:18:44.452Z,99296.44
2022-11-20T23:21:16.198Z,99299.03
2022-11-20T23:23:48.597Z,99303.31
2022-11-20T23:26:18.723Z,99304.16
2022-11-20T23:28:47.485Z,99309.25
2022-11-20T23:31:17.362Z,99312.69
2022-11-20T23:33:47.145Z,99315.25
2022-11-20T23:36:17.723Z,99316.94
2022-11-20T23:38:46.394Z,99306.66
2022-11-20T23:41:16.326Z,99316.88
2022-11-20T23:43:44.899Z,99310.81
2022-11-20T23:46:16.481Z,99304.78
2022-11-20T23:48:46.304Z,99300.47
2022-11-20T23:51:15.684Z,99306.44
2022-11-20T23:53:45.909Z,99286.69
2022-11-20T23:56:16.142Z,99281.63
2022-11-20T23:58:44.860Z,99281.63
